Pagrindinis puslapis
METAR-TAF:

METAR-TAF

Oro uostai :

Damaskas, Sirija

platuma: 33-25N, ilguma: 036-31E, Aukštis: 608 m

Dabartinis oras

Ataskaita buvo paskelbta 50 minutes, ne 10:00 UTC
Vėjas 26 kt iš Vakarų/Pietvakarių
Temperatūra 29°C
Drėgmė 16%
Slėgis 1015 hPa
Matomumas 10 km arba daugiau
nėra debesų žemiau 1500 m ir nėra kamuolinių lietaus debesų

METAR: OSDI 041000Z 24026KT CAVOK 29/01 Q1015

Laikas: 13:50 (10:50 UTC)

Prognozė

Ataskaita buvo paskelbta 7 valandos ir 6 minutes, ne 03:44 UTC
Prognozė galioja nuo 04 metu 06 UTC su 05 metu 12 UTC
Vėjas 12 kt iš Pietvakarių
Matomumas 10 km arba daugiau
nėra debesų žemiau 1500 m ir nėra kamuolinių lietaus debesų
Laikinai
nuo 04 metu 09 UTC su 04 metu 18 UTC
Vėjas 15 kt iš Vakarų su gūsio iki 25 kt
Matomumas 10 km arba daugiau
Mažai debesys ne aukštis 3000 ft

TAF: OSDI 040344Z 0406/0512 23012KT CAVOK TEMPO 0409/0418 28015G25KT 9999 FEW030

Orai ataskaitas ir orų prognozės (METAR, TAF).

turimą stotys yra geltonos ir raudonos taškus žemėlapyje.

Perkelti pele per norėdami pamatyti stoties vardą.

Tada spustelėkite, norėdami matyti oro stebėjimo ir prognozės.

Norėdami pakeisti žemėlapį: spustelėkite ant žalios mygtukų su juodo kryžiaus žemyn,; žalią mygtuką su brūkšneliu, jei norite nutolinti; arba žalių rodyklių gretimoms žemėlapius.


METAR-TAF: